createdAt,value
2018-06-30T00:01:56.694Z,1.33
2018-06-30T00:07:01.543Z,1.40
2018-06-30T00:12:06.034Z,1.60
2018-06-30T00:17:10.510Z,1.53
2018-06-30T00:22:14.957Z,2.00
2018-06-30T00:27:24.590Z,1.60
2018-06-30T00:32:29.481Z,1.50
2018-06-30T00:37:34.098Z,1.67
2018-06-30T00:42:38.611Z,1.30
2018-06-30T00:47:43.005Z,1.50
2018-06-30T00:52:47.489Z,2.00
2018-06-30T00:57:52.252Z,1.60
2018-06-30T01:02:56.993Z,1.33
2018-06-30T01:08:01.547Z,1.50
2018-06-30T01:13:06.290Z,1.60
2018-06-30T01:18:11.065Z,1.70
2018-06-30T01:23:15.557Z,1.53
2018-06-30T01:28:20.160Z,1.60
2018-06-30T01:33:24.612Z,1.40
2018-06-30T01:38:29.268Z,1.40
2018-06-30T01:43:33.763Z,1.47
2018-06-30T01:48:38.465Z,1.47
2018-06-30T01:53:42.999Z,1.30
2018-06-30T01:58:47.450Z,1.37
2018-06-30T02:03:52.090Z,1.40
2018-06-30T02:08:56.537Z,1.30
2018-06-30T02:14:00.989Z,1.20
2018-06-30T02:19:05.494Z,1.30
2018-06-30T02:24:09.981Z,1.20
2018-06-30T02:29:14.682Z,1.47
2018-06-30T02:34:19.147Z,1.40
2018-06-30T02:39:23.658Z,1.23
2018-06-30T02:44:28.323Z,1.20
2018-06-30T02:49:32.915Z,1.07
2018-06-30T02:54:37.387Z,1.25
2018-06-30T02:59:41.913Z,1.23
2018-06-30T03:04:46.445Z,1.50
2018-06-30T03:09:51.047Z,1.13
2018-06-30T03:14:55.501Z,1.20
2018-06-30T03:20:00.058Z,1.10
2018-06-30T03:25:05.007Z,1.20
2018-06-30T03:30:09.647Z,1.20
2018-06-30T03:35:14.264Z,1.10
2018-06-30T03:40:18.887Z,0.80
2018-06-30T03:45:23.443Z,1.27
2018-06-30T03:50:28.461Z,0.93
2018-06-30T03:55:32.973Z,1.10
2018-06-30T04:00:37.422Z,1.10
2018-06-30T04:05:41.898Z,1.00
2018-06-30T04:10:46.478Z,1.10
2018-06-30T04:15:50.933Z,1.00
2018-06-30T04:20:55.588Z,1.03
2018-06-30T04:26:00.093Z,1.00
2018-06-30T04:31:04.560Z,1.00
2018-06-30T04:36:09.185Z,1.00
2018-06-30T04:41:13.537Z,0.80
2018-06-30T04:46:18.157Z,1.00
2018-06-30T04:51:22.649Z,0.80
2018-06-30T04:56:27.635Z,1.00
2018-06-30T05:01:32.349Z,0.93
2018-06-30T05:06:36.741Z,0.70
2018-06-30T05:11:41.127Z,0.83
2018-06-30T05:16:45.336Z,0.90
2018-06-30T05:21:49.720Z,0.90
2018-06-30T05:26:54.365Z,0.83
2018-06-30T05:31:59.009Z,0.90
2018-06-30T05:37:03.440Z,0.90
2018-06-30T05:42:08.215Z,0.60
2018-06-30T05:47:12.671Z,1.03
2018-06-30T05:52:17.246Z,0.70
2018-06-30T05:57:21.807Z,0.70
2018-06-30T06:02:26.569Z,0.90
2018-06-30T06:07:31.209Z,0.90
2018-06-30T06:12:35.655Z,0.80
2018-06-30T06:17:40.292Z,0.80
2018-06-30T06:22:44.925Z,0.80
2018-06-30T06:27:49.676Z,0.70
2018-06-30T06:32:54.447Z,0.70
2018-06-30T06:37:58.662Z,0.60
2018-06-30T06:43:03.285Z,0.77
2018-06-30T06:48:08.059Z,0.70
2018-06-30T06:53:12.673Z,0.90
2018-06-30T06:58:18.295Z,0.80
2018-06-30T07:03:24.329Z,0.60
2018-06-30T07:08:29.572Z,0.40
2018-06-30T07:13:34.026Z,0.40
2018-06-30T07:18:38.741Z,0.33
2018-06-30T07:23:43.297Z,0.30
2018-06-30T07:28:47.985Z,0.40
2018-06-30T07:33:52.529Z,0.30
2018-06-30T07:38:57.112Z,0.40
2018-06-30T07:44:01.799Z,0.30
2018-06-30T07:49:06.357Z,0.37
2018-06-30T07:54:10.969Z,0.40
2018-06-30T07:59:15.796Z,0.30
2018-06-30T08:04:20.269Z,0.40
2018-06-30T08:09:24.820Z,0.40
2018-06-30T08:14:29.800Z,0.90
2018-06-30T08:19:34.849Z,0.80
2018-06-30T08:24:39.593Z,0.50
2018-06-30T08:29:44.096Z,0.50
2018-06-30T08:34:48.228Z,0.73
2018-06-30T08:39:52.829Z,0.60
2018-06-30T08:44:57.785Z,0.43
2018-06-30T08:50:02.349Z,0.40
2018-06-30T08:55:07.371Z,0.50
2018-06-30T09:00:12.017Z,0.40
2018-06-30T09:05:16.624Z,0.60
2018-06-30T09:10:21.153Z,0.40
2018-06-30T09:15:25.545Z,0.33
2018-06-30T09:20:29.919Z,0.40
2018-06-30T09:25:34.469Z,0.40
2018-06-30T09:30:39.213Z,0.30
2018-06-30T09:35:43.780Z,0.70
2018-06-30T09:40:49.244Z,0.40
2018-06-30T09:45:54.060Z,0.30
2018-06-30T09:50:58.641Z,0.47
2018-06-30T09:56:03.220Z,0.43
2018-06-30T10:01:07.312Z,0.50
2018-06-30T10:06:11.672Z,0.40
2018-06-30T10:11:16.010Z,0.50
2018-06-30T10:16:20.089Z,0.30
2018-06-30T10:21:24.500Z,0.40
2018-06-30T10:26:29.046Z,0.53
2018-06-30T10:31:33.893Z,0.57
2018-06-30T10:36:38.486Z,0.30
2018-06-30T10:41:42.962Z,0.40
2018-06-30T10:46:47.713Z,0.37
2018-06-30T10:51:52.249Z,1.00
2018-06-30T10:56:56.648Z,0.40
2018-06-30T11:02:01.065Z,0.33
2018-06-30T11:07:05.505Z,0.37
2018-06-30T11:12:09.910Z,0.90
2018-06-30T11:17:14.326Z,0.47
2018-06-30T11:22:18.989Z,0.40
2018-06-30T11:27:23.757Z,0.35
2018-06-30T11:32:28.183Z,0.42
2018-06-30T11:37:33.127Z,0.30
2018-06-30T11:42:37.843Z,0.40
2018-06-30T11:47:42.421Z,0.47
2018-06-30T11:52:46.832Z,0.37
2018-06-30T11:57:51.225Z,0.47
2018-06-30T12:02:55.820Z,0.43
2018-06-30T12:08:00.407Z,0.33
2018-06-30T12:13:04.804Z,0.30
2018-06-30T12:18:09.651Z,0.40
2018-06-30T12:23:14.766Z,0.70
2018-06-30T12:28:19.209Z,0.73
2018-06-30T12:33:23.280Z,0.50
2018-06-30T12:38:27.924Z,0.87
2018-06-30T12:43:32.338Z,0.50
2018-06-30T12:48:37.142Z,0.50
2018-06-30T12:53:41.516Z,0.60
2018-06-30T12:58:46.578Z,0.40
2018-06-30T13:03:51.572Z,0.37
2018-06-30T13:08:56.138Z,0.40
2018-06-30T13:14:02.889Z,0.57
2018-06-30T13:19:08.781Z,0.55
2018-06-30T13:24:13.122Z,0.70
2018-06-30T13:29:17.545Z,0.50
2018-06-30T13:34:22.090Z,0.60
2018-06-30T13:39:26.526Z,0.50
2018-06-30T13:44:31.070Z,0.60
2018-06-30T13:49:35.648Z,0.60
2018-06-30T13:54:40.495Z,0.83
2018-06-30T13:59:45.144Z,0.40
2018-06-30T14:04:50.440Z,0.80
2018-06-30T14:09:55.464Z,1.10
2018-06-30T14:14:59.917Z,0.67
2018-06-30T14:20:04.862Z,0.50
2018-06-30T14:25:09.910Z,0.50
2018-06-30T14:30:14.537Z,0.60
2018-06-30T14:35:19.121Z,0.70
2018-06-30T14:40:23.705Z,0.90
2018-06-30T14:45:28.127Z,1.07
2018-06-30T14:50:32.561Z,0.80
2018-06-30T14:55:37.233Z,0.70
2018-06-30T15:00:41.877Z,0.67
2018-06-30T15:05:46.401Z,0.50
2018-06-30T15:10:50.844Z,0.77
2018-06-30T15:15:55.593Z,0.70
2018-06-30T15:21:00.234Z,0.90
2018-06-30T15:26:05.082Z,1.07
2018-06-30T15:31:09.718Z,0.93
2018-06-30T15:36:14.202Z,0.40
2018-06-30T15:41:18.835Z,0.93
2018-06-30T15:46:23.467Z,0.50
2018-06-30T15:51:28.110Z,0.60
2018-06-30T15:56:32.632Z,0.60
2018-06-30T16:01:37.267Z,0.40
2018-06-30T16:06:42.209Z,0.60
2018-06-30T16:11:46.665Z,0.50
2018-06-30T16:16:51.217Z,0.60
2018-06-30T16:21:55.761Z,0.50
2018-06-30T16:27:00.394Z,0.60
2018-06-30T16:32:04.825Z,0.40
2018-06-30T16:37:09.441Z,0.50
2018-06-30T16:42:13.766Z,0.83
2018-06-30T16:47:18.153Z,0.50
2018-06-30T16:52:22.590Z,0.53
2018-06-30T16:57:27.058Z,0.70
2018-06-30T17:02:32.559Z,0.80
2018-06-30T17:07:38.072Z,0.60
2018-06-30T17:12:43.404Z,0.60
2018-06-30T17:17:47.846Z,0.70
2018-06-30T17:22:52.334Z,0.67
2018-06-30T17:27:57.029Z,0.50
2018-06-30T17:33:01.597Z,0.60
2018-06-30T17:38:06.052Z,0.30
2018-06-30T17:43:10.544Z,0.50
2018-06-30T17:48:15.046Z,0.43
2018-06-30T17:53:19.661Z,0.60
2018-06-30T17:58:24.151Z,0.53
2018-06-30T18:03:28.963Z,0.73
2018-06-30T18:08:33.608Z,0.50
2018-06-30T18:13:38.083Z,0.80
2018-06-30T18:18:42.599Z,0.60
2018-06-30T18:23:47.487Z,0.40
2018-06-30T18:28:52.017Z,0.40
2018-06-30T18:33:56.489Z,0.60
2018-06-30T18:39:01.091Z,0.70
2018-06-30T18:44:05.548Z,1.17
2018-06-30T18:49:10.231Z,0.60
2018-06-30T18:54:14.699Z,0.60
2018-06-30T18:59:19.343Z,0.60
2018-06-30T19:04:23.965Z,0.50
2018-06-30T19:09:28.497Z,0.50
2018-06-30T19:14:33.506Z,0.87
2018-06-30T19:19:38.388Z,1.10
2018-06-30T19:24:43.088Z,0.80
2018-06-30T19:29:47.555Z,0.63
2018-06-30T19:34:51.764Z,0.90
2018-06-30T19:39:56.399Z,0.73
2018-06-30T19:45:00.703Z,0.70
2018-06-30T19:50:06.276Z,0.63
2018-06-30T19:55:11.157Z,0.60
2018-06-30T20:00:16.128Z,0.57
2018-06-30T20:05:20.685Z,0.90
2018-06-30T20:10:26.039Z,0.47
2018-06-30T20:15:30.825Z,1.40
2018-06-30T20:20:36.407Z,0.73
2018-06-30T20:25:41.188Z,0.90
2018-06-30T20:30:45.734Z,4.23
2018-06-30T20:35:50.245Z,2.60
2018-06-30T20:40:54.749Z,3.07
2018-06-30T20:45:59.272Z,3.25
2018-06-30T20:51:03.742Z,3.80
2018-06-30T20:56:08.216Z,2.50
2018-06-30T21:01:13.561Z,1.90
2018-06-30T21:06:17.742Z,2.10
2018-06-30T21:11:22.351Z,1.82
2018-06-30T21:16:26.920Z,1.60
2018-06-30T21:21:31.946Z,1.47
2018-06-30T21:26:37.631Z,1.60
2018-06-30T21:31:42.121Z,1.60
2018-06-30T21:36:47.245Z,1.70
2018-06-30T21:41:52.089Z,1.60
2018-06-30T21:46:56.701Z,1.60
2018-06-30T21:52:01.204Z,1.40
2018-06-30T21:57:06.504Z,1.05
2018-06-30T22:02:11.420Z,0.70
2018-06-30T22:07:16.073Z,1.10
2018-06-30T22:12:20.880Z,1.10
2018-06-30T22:17:25.368Z,2.43
2018-06-30T22:22:30.313Z,1.00
2018-06-30T22:27:35.044Z,1.20
2018-06-30T22:32:39.638Z,1.00
2018-06-30T22:37:44.122Z,0.93
2018-06-30T22:42:49.057Z,0.90
2018-06-30T22:47:53.360Z,0.93
2018-06-30T22:52:57.926Z,0.90
2018-06-30T22:58:02.683Z,1.10
2018-06-30T23:03:12.019Z,1.30
2018-06-30T23:08:16.589Z,1.43
2018-06-30T23:13:21.255Z,1.43
2018-06-30T23:18:25.727Z,1.10
2018-06-30T23:23:30.209Z,1.10
2018-06-30T23:28:34.742Z,1.00
2018-06-30T23:33:39.408Z,1.07
2018-06-30T23:38:43.870Z,0.80
2018-06-30T23:43:48.673Z,1.07
2018-06-30T23:48:53.267Z,1.10
2018-06-30T23:53:57.950Z,1.00
2018-06-30T23:59:02.705Z,0.97
